Aérodrome :
LOGIN :

S'inscrire | Disclaimer

   EN    FR    IT 

 










Légende :    VFR   VFR Marginal   IFR   IFR Intensif   IFR Très Intensif
Visi : 
Plafond : 
>= 8 km
>= 3000ft
5 à 8 km
1000 à 3000 ft
1500m à 5 km
500 à 1000 ft
800 à 1500m
200 à 500 ft
< 800m
< 200 ft
Symboles :   Orages  Brouillard  Fortes neiges  Fortes précipitations  Vent > 20 kt
SIGMETs :   Divers  Orages  Givrage  Turbulence  Onde Orograph.  Cendres Volcan.







- Altitude de l'aérodrome : 1411 ft
- Code IATA : SZG


LOWS - Salzburg

DERNIER METAR :
  • 260450Z VRB01KT CAVOK 01/M04 Q1018 NOSIG

METARs EXPIRÉS :
  • 260420Z AUTO 27003KT 210V350 9999 FEW150 BKN170 01/M04 Q1018
  • 260350Z AUTO VRB07KT 9999 FEW150 SCT160 BKN180 03/M06 Q1018
  • 260320Z AUTO 15009KT 9999 FEW150 SCT160 BKN170 02/M05 Q1017
  • 260250Z AUTO 15011KT 9999 FEW150 BKN170 02/M05 Q1017
  • 260220Z AUTO 15010KT 9999 FEW170 BKN200 02/M05 Q1017

TAF TAF LOWS
Valide du 26 à 00h jusqu'au 27 à 00h UTC


252315Z 2600/2624 15007KT CAVOK TX12/2612Z TNM02/2604Z
TEMPO 2611/2616 02005KT 9999 FEW060 BKN120 BKN250
Pas de NOTAMs connus pour ce terrain.



MET'MAP, la Météo Aéronautique d'un coup d'oeil ! - Copyright ORBIFLY Décembre 2007 - Disclaimer

ORBIFLY MET'MAP TEAM :

Programmation & Développement : Alexandra Zaïnal
Conception & Développement : Baudouin d'Aumeries
Co-Programmation & Développement : Marc-Olivier Méhu
Soutien technique & logistique : Manuel Goepfert

Contact : metmap@orbifly.com




SOURCES & CREDITS :

   NOAA